^^
Albertville, AL Historical Data
 
Daily Summary for February 22, 2019 Units:  English    Metric   Both
Daily Weekly Monthly Yearly Custom
  Current: High: Low: Average:
Temperature: 55.1 °F 55.6 °F 48.8 °F 50.5 °F
Dew Point: 53.7 °F 54.2 °F 47.4 °F 49.3 °F
Humidity: 95% 96% 95% 96%
Wind Speed: 4.0mph 8.0mph 0.0mph 1.9mph
Wind Gust: 9.0mph 14.0mph - -
WindESE - - ENE
Pressure: 30.20 in 30.26 in 30.16 in -
Precipitation: 0.51 in      
Historical Graphs
 
 
Tabular Data for February 22, 2019
Time Temperature Dew Point Pressure Wind Wind Speed Wind Gust Humidity Rainfall Rate (Hourly) solar
00:00 49.9 °F 48.8 °F 30.17 in East 3.0 mph 9.0 mph 96% 0.01 in 0.00 W/m2
00:05 49.9 °F 48.8 °F 30.18 in East 2.0 mph 6.0 mph 96% 0.01 in 0.00 W/m2
00:10 49.9 °F 48.8 °F 30.18 in ENE 2.0 mph 6.0 mph 96% 0.01 in 0.00 W/m2
00:15 49.9 °F 48.8 °F 30.18 in ENE 2.0 mph 6.0 mph 96% 0.01 in 0.00 W/m2
00:20 49.9 °F 48.8 °F 30.18 in ENE 2.0 mph 7.0 mph 96% 0.01 in 0.00 W/m2
00:25 49.9 °F 48.8 °F 30.18 in ENE 3.0 mph 10.0 mph 96% 0.01 in 0.00 W/m2
00:30 49.9 °F 48.8 °F 30.18 in East 2.0 mph 8.0 mph 96% 0.01 in 0.00 W/m2
00:35 49.8 °F 48.7 °F 30.18 in East 1.0 mph 5.0 mph 96% 0.01 in 0.00 W/m2
00:40 49.8 °F 48.7 °F 30.18 in ENE 3.0 mph 10.0 mph 96% 0.00 in 0.00 W/m2
00:45 49.8 °F 48.7 °F 30.18 in East 3.0 mph 9.0 mph 96% 0.00 in 0.00 W/m2
00:50 49.8 °F 48.7 °F 30.18 in NE 5.0 mph 9.0 mph 96% 0.00 in 0.00 W/m2
00:55 49.7 °F 48.6 °F 30.18 in ENE 2.0 mph 8.0 mph 96% 0.00 in 0.00 W/m2
01:00 49.7 °F 48.6 °F 30.17 in ENE 4.0 mph 11.0 mph 96% 0.00 in 0.00 W/m2
01:05 49.7 °F 48.6 °F 30.17 in ENE 4.0 mph 11.0 mph 96% 0.00 in 0.00 W/m2
01:10 49.7 °F 48.6 °F 30.17 in East 4.0 mph 11.0 mph 96% 0.00 in 0.00 W/m2
01:15 49.7 °F 48.6 °F 30.17 in East 3.0 mph 7.0 mph 96% 0.00 in 0.00 W/m2
01:20 49.7 °F 48.6 °F 30.17 in East 3.0 mph 7.0 mph 96% 0.00 in 0.00 W/m2
01:25 49.7 °F 48.6 °F 30.16 in ENE 3.0 mph 7.0 mph 96% 0.00 in 0.00 W/m2
01:30 49.7 °F 48.6 °F 30.17 in East 5.0 mph 10.0 mph 96% 0.00 in 0.00 W/m2
01:35 49.6 °F 48.5 °F 30.17 in ENE 4.0 mph 8.0 mph 96% 0.00 in 0.00 W/m2
01:40 49.7 °F 48.6 °F 30.16 in NE 1.0 mph 4.0 mph 96% 0.00 in 0.00 W/m2
01:45 49.7 °F 48.6 °F 30.16 in East 3.0 mph 7.0 mph 96% 0.00 in 0.00 W/m2
01:50 49.6 °F 48.2 °F 30.16 in ENE 3.0 mph 8.0 mph 95% 0.00 in 0.00 W/m2
01:55 49.6 °F 48.2 °F 30.17 in East 3.0 mph 7.0 mph 95% 0.00 in 0.00 W/m2
02:00 49.6 °F 48.5 °F 30.16 in East 1.0 mph 4.0 mph 96% 0.00 in 0.00 W/m2
02:05 49.6 °F 48.5 °F 30.16 in East 3.0 mph 7.0 mph 96% 0.00 in 0.00 W/m2
02:10 49.6 °F 48.5 °F 30.17 in East 1.0 mph 3.0 mph 96% 0.00 in 0.00 W/m2
02:15 49.6 °F 48.5 °F 30.16 in East 3.0 mph 6.0 mph 96% 0.00 in 0.00 W/m2
02:20 49.6 °F 48.5 °F 30.18 in West 2.0 mph 4.0 mph 96% 0.00 in 0.00 W/m2
02:25 49.6 °F 48.5 °F 30.18 in West 2.0 mph 7.0 mph 96% 0.00 in 0.00 W/m2
02:30 49.6 °F 48.5 °F 30.18 in East 2.0 mph 5.0 mph 96% 0.00 in 0.00 W/m2
02:35 49.7 °F 48.6 °F 30.17 in North 1.0 mph 5.0 mph 96% 0.00 in 0.00 W/m2
02:40 49.7 °F 48.6 °F 30.16 in East 4.0 mph 8.0 mph 96% 0.00 in 0.00 W/m2
02:45 49.7 °F 48.6 °F 30.17 in ESE 1.0 mph 6.0 mph 96% 0.00 in 0.00 W/m2
02:50 49.7 °F 48.6 °F 30.17 in Calm   2.0 mph 96% 0.00 in 0.00 W/m2
02:55 49.7 °F 48.6 °F 30.17 in ESE 1.0 mph 6.0 mph 96% 0.00 in 0.00 W/m2
03:00 49.7 °F 48.6 °F 30.17 in Calm   3.0 mph 96% 0.00 in 0.00 W/m2
03:05 49.8 °F 48.7 °F 30.17 in East 2.0 mph 7.0 mph 96% 0.00 in 0.00 W/m2
03:10 49.8 °F 48.7 °F 30.17 in Calm   2.0 mph 96% 0.00 in 0.00 W/m2
03:15 49.8 °F 48.7 °F 30.17 in East 2.0 mph 5.0 mph 96% 0.00 in 0.00 W/m2
03:20 49.8 °F 48.7 °F 30.16 in East 1.0 mph 3.0 mph 96% 0.00 in 0.00 W/m2
03:25 49.9 °F 48.8 °F 30.17 in East 1.0 mph 5.0 mph 96% 0.00 in 0.00 W/m2
03:30 49.8 °F 48.7 °F 30.18 in East 2.0 mph 7.0 mph 96% 0.00 in 0.00 W/m2
03:35 49.9 °F 48.8 °F 30.18 in East 1.0 mph 3.0 mph 96% 0.00 in 0.00 W/m2
03:40 49.8 °F 48.7 °F 30.17 in East 2.0 mph 5.0 mph 96% 0.00 in 0.00 W/m2
03:45 49.9 °F 48.8 °F 30.17 in East 2.0 mph 5.0 mph 96% 0.00 in 0.00 W/m2
03:50 49.8 °F 48.7 °F 30.17 in East 3.0 mph 6.0 mph 96% 0.00 in 0.00 W/m2
03:55 49.7 °F 48.6 °F 30.17 in East 2.0 mph 5.0 mph 96% 0.00 in 0.00 W/m2
04:00 49.7 °F 48.6 °F 30.17 in ESE 2.0 mph 7.0 mph 96% 0.00 in 0.00 W/m2
04:05 49.7 °F 48.6 °F 30.17 in ESE 1.0 mph 4.0 mph 96% 0.00 in 0.00 W/m2
04:10 49.7 °F 48.6 °F 30.17 in ESE 1.0 mph 4.0 mph 96% 0.00 in 0.00 W/m2
04:15 49.7 °F 48.6 °F 30.18 in NE 1.0 mph 3.0 mph 96% 0.00 in 0.00 W/m2
04:20 49.7 °F 48.6 °F 30.18 in NE 2.0 mph 5.0 mph 96% 0.00 in 0.00 W/m2
04:25 49.7 °F 48.6 °F 30.18 in East 1.0 mph 6.0 mph 96% 0.00 in 0.00 W/m2
04:30 49.7 °F 48.6 °F 30.18 in East 2.0 mph 5.0 mph 96% 0.00 in 0.00 W/m2
04:35 49.7 °F 48.6 °F 30.18 in ENE 1.0 mph 4.0 mph 96% 0.00 in 0.00 W/m2
04:40 49.7 °F 48.6 °F 30.18 in ENE 2.0 mph 8.0 mph 96% 0.00 in 0.00 W/m2
04:45 49.7 °F 48.6 °F 30.19 in East 1.0 mph 3.0 mph 96% 0.00 in 0.00 W/m2
04:50 49.6 °F 48.5 °F 30.19 in ENE 2.0 mph 5.0 mph 96% 0.00 in 0.00 W/m2
04:55 49.6 °F 48.5 °F 30.20 in ENE 1.0 mph 5.0 mph 96% 0.00 in 0.00 W/m2
05:00 49.6 °F 48.2 °F 30.20 in East 2.0 mph 7.0 mph 95% 0.00 in 0.00 W/m2
05:05 49.6 °F 48.2 °F 30.19 in NE 1.0 mph 3.0 mph 95% 0.00 in 0.00 W/m2
05:10 49.6 °F 48.2 °F 30.19 in NE 2.0 mph 6.0 mph 95% 0.00 in 0.00 W/m2
05:15 49.5 °F 48.1 °F 30.19 in ENE 2.0 mph 6.0 mph 95% 0.00 in 0.00 W/m2
05:20 49.5 °F 48.1 °F 30.19 in East 2.0 mph 6.0 mph 95% 0.00 in 0.00 W/m2
05:25 49.5 °F 48.1 °F 30.20 in ENE 3.0 mph 8.0 mph 95% 0.00 in 0.00 W/m2
05:30 49.5 °F 48.1 °F 30.20 in ENE 1.0 mph 5.0 mph 95% 0.00 in 0.00 W/m2
05:35 49.5 °F 48.1 °F 30.20 in East 2.0 mph 5.0 mph 95% 0.00 in 0.00 W/m2
05:40 49.5 °F 48.1 °F 30.20 in ENE 1.0 mph 4.0 mph 95% 0.00 in 0.00 W/m2
05:45 49.5 °F 48.1 °F 30.19 in NE 2.0 mph 5.0 mph 95% 0.00 in 0.00 W/m2
05:50 49.5 °F 48.1 °F 30.19 in NE 1.0 mph 4.0 mph 95% 0.00 in 0.00 W/m2
05:55 49.5 °F 48.1 °F 30.19 in ENE 1.0 mph 4.0 mph 95% 0.00 in 0.00 W/m2
06:00 49.5 °F 48.1 °F 30.20 in ENE 1.0 mph 3.0 mph 95% 0.00 in 0.00 W/m2
06:05 49.4 °F 48.0 °F 30.19 in ENE 1.0 mph 3.0 mph 95% 0.00 in 0.00 W/m2
06:10 49.4 °F 48.0 °F 30.20 in ENE 1.0 mph 3.0 mph 95% 0.00 in 0.00 W/m2
06:15 49.4 °F 48.0 °F 30.20 in ENE 1.0 mph 3.0 mph 95% 0.00 in 0.00 W/m2
06:20 49.4 °F 48.0 °F 30.20 in ENE 1.0 mph 4.0 mph 95% 0.00 in 0.00 W/m2
06:25 49.3 °F 47.9 °F 30.21 in Calm   3.0 mph 95% 0.00 in 0.00 W/m2
06:30 49.3 °F 48.2 °F 30.21 in NNE 1.0 mph 4.0 mph 96% 0.00 in 0.00 W/m2
06:35 49.2 °F 48.1 °F 30.21 in NNE 1.0 mph 3.0 mph 96% 0.00 in 0.00 W/m2
06:40 49.2 °F 48.1 °F 30.20 in NNE 1.0 mph 5.0 mph 96% 0.00 in 0.00 W/m2
06:45 49.1 °F 48.0 °F 30.20 in ENE 1.0 mph 4.0 mph 96% 0.00 in 0.00 W/m2
06:50 49.0 °F 47.9 °F 30.20 in ENE 1.0 mph 5.0 mph 96% 0.00 in 0.00 W/m2
06:55 49.0 °F 47.6 °F 30.20 in ENE 3.0 mph 6.0 mph 95% 0.00 in 0.00 W/m2
07:00 48.9 °F 47.5 °F 30.20 in ENE 3.0 mph 5.0 mph 95% 0.00 in 0.00 W/m2
07:05 48.9 °F 47.5 °F 30.21 in ENE 1.0 mph 4.0 mph 95% 0.00 in 1.00 W/m2
07:10 48.9 °F 47.5 °F 30.21 in NE 2.0 mph 5.0 mph 95% 0.00 in 3.00 W/m2
07:15 48.9 °F 47.5 °F 30.21 in ENE 2.0 mph 5.0 mph 95% 0.00 in 6.00 W/m2
07:20 48.8 °F 47.4 °F 30.22 in ENE 1.0 mph 3.0 mph 95% 0.01 in 10.00 W/m2
07:25 48.9 °F 47.5 °F 30.22 in NE 1.0 mph 3.0 mph 95% 0.03 in 24.00 W/m2
07:30 48.9 °F 47.5 °F 30.22 in ENE 1.0 mph 4.0 mph 95% 0.07 in 21.00 W/m2
07:35 48.9 °F 47.5 °F 30.23 in ENE 1.0 mph 4.0 mph 95% 0.08 in 22.00 W/m2
07:40 48.8 °F 47.4 °F 30.22 in NE 1.0 mph 4.0 mph 95% 0.08 in 17.00 W/m2
07:45 48.9 °F 47.5 °F 30.23 in ENE 2.0 mph 7.0 mph 95% 0.08 in 33.00 W/m2
07:50 48.9 °F 47.5 °F 30.23 in NE 2.0 mph 6.0 mph 95% 0.08 in 24.00 W/m2
07:55 48.9 °F 47.5 °F 30.23 in ENE 2.0 mph 4.0 mph 95% 0.08 in 25.00 W/m2
08:00 48.9 °F 47.5 °F 30.23 in ENE 1.0 mph 4.0 mph 95% 0.08 in 26.00 W/m2
08:05 48.9 °F 47.5 °F 30.22 in East 2.0 mph 6.0 mph 95% 0.08 in 17.00 W/m2
08:10 49.0 °F 47.6 °F 30.23 in ENE 2.0 mph 7.0 mph 95% 0.08 in 17.00 W/m2
08:15 49.0 °F 47.9 °F 30.23 in ESE 1.0 mph 5.0 mph 96% 0.08 in 14.00 W/m2
08:20 49.0 °F 47.9 °F 30.23 in East 2.0 mph 6.0 mph 96% 0.10 in 15.00 W/m2
08:25 49.1 °F 48.0 °F 30.23 in ENE 2.0 mph 8.0 mph 96% 0.09 in 22.00 W/m2
08:30 49.1 °F 48.0 °F 30.22 in NE 3.0 mph 7.0 mph 96% 0.06 in 36.00 W/m2
08:35 49.2 °F 48.1 °F 30.23 in ENE 1.0 mph 5.0 mph 96% 0.06 in 19.00 W/m2
08:40 49.2 °F 48.1 °F 30.24 in ENE 1.0 mph 7.0 mph 96% 0.07 in 13.00 W/m2
08:45 49.2 °F 48.1 °F 30.24 in ENE 1.0 mph 4.0 mph 96% 0.09 in 13.00 W/m2
08:50 49.2 °F 48.1 °F 30.25 in ENE 1.0 mph 5.0 mph 96% 0.10 in 17.00 W/m2
08:55 49.2 °F 48.1 °F 30.24 in East 2.0 mph 6.0 mph 96% 0.12 in 11.00 W/m2
09:00 49.2 °F 48.1 °F 30.24 in ENE 1.0 mph 5.0 mph 96% 0.14 in 15.00 W/m2
09:05 49.2 °F 48.1 °F 30.24 in ENE 2.0 mph 5.0 mph 96% 0.17 in 27.00 W/m2
09:10 49.3 °F 48.2 °F 30.25 in Calm   3.0 mph 96% 0.19 in 31.00 W/m2
09:15 49.4 °F 48.3 °F 30.25 in SSE 4.0 mph 6.0 mph 96% 0.20 in 36.00 W/m2
09:20 49.4 °F 48.3 °F 30.25 in SE 4.0 mph 7.0 mph 96% 0.21 in 33.00 W/m2
09:25 49.5 °F 48.4 °F 30.25 in East 1.0 mph 5.0 mph 96% 0.22 in 54.00 W/m2
09:30 49.5 °F 48.4 °F 30.25 in East 1.0 mph 2.0 mph 96% 0.22 in 64.00 W/m2
09:35 49.7 °F 48.6 °F 30.26 in SE 1.0 mph 3.0 mph 96% 0.22 in 56.00 W/m2
09:40 49.7 °F 48.6 °F 30.26 in Calm   2.0 mph 96% 0.22 in 62.00 W/m2
09:45 49.8 °F 48.7 °F 30.26 in Calm   1.0 mph 96% 0.20 in 72.00 W/m2
09:50 49.9 °F 48.8 °F 30.26 in Calm   2.0 mph 96% 0.19 in 54.00 W/m2
09:55 50.0 °F 48.9 °F 30.25 in ESE 1.0 mph 3.0 mph 96% 0.17 in 57.00 W/m2
10:00 50.2 °F 49.1 °F 30.25 in ENE 1.0 mph 4.0 mph 96% 0.15 in 84.00 W/m2
10:05 50.3 °F 49.2 °F 30.25 in ENE 1.0 mph 4.0 mph 96% 0.13 in 90.00 W/m2
10:10 50.5 °F 49.4 °F 30.26 in North 1.0 mph 4.0 mph 96% 0.11 in 62.00 W/m2
10:15 50.6 °F 49.5 °F 30.26 in NNE 1.0 mph 5.0 mph 96% 0.10 in 59.00 W/m2
10:20 50.8 °F 49.7 °F 30.26 in NNW 1.0 mph 4.0 mph 96% 0.06 in 49.00 W/m2
10:25 50.8 °F 49.7 °F 30.26 in North 1.0 mph 4.0 mph 96% 0.04 in 55.00 W/m2
10:30 50.9 °F 49.8 °F 30.25 in NNE 2.0 mph 7.0 mph 96% 0.04 in 89.00 W/m2
10:35 50.9 °F 49.8 °F 30.25 in NE 3.0 mph 8.0 mph 96% 0.03 in 117.00 W/m2
10:40 50.9 °F 49.8 °F 30.26 in NE 1.0 mph 7.0 mph 96% 0.02 in 87.00 W/m2
10:45 51.0 °F 49.9 °F 30.25 in NE 1.0 mph 5.0 mph 96% 0.03 in 81.00 W/m2
10:50 51.0 °F 49.9 °F 30.25 in NE 3.0 mph 7.0 mph 96% 0.03 in 81.00 W/m2
10:55 51.0 °F 49.9 °F 30.26 in NNE 1.0 mph 4.0 mph 96% 0.03 in 73.00 W/m2
11:00 51.0 °F 49.9 °F 30.26 in Calm   2.0 mph 96% 0.03 in 53.00 W/m2
11:05 51.0 °F 49.9 °F 30.26 in ENE 2.0 mph 5.0 mph 96% 0.03 in 83.00 W/m2
11:10 51.0 °F 49.9 °F 30.26 in ENE 2.0 mph 5.0 mph 96% 0.03 in 84.00 W/m2
11:15 50.9 °F 49.8 °F 30.26 in NE 1.0 mph 4.0 mph 96% 0.03 in 69.00 W/m2
11:20 50.9 °F 49.8 °F 30.25 in ENE 4.0 mph 9.0 mph 96% 0.03 in 65.00 W/m2
11:25 50.9 °F 49.8 °F 30.25 in ENE 2.0 mph 7.0 mph 96% 0.03 in 45.00 W/m2
11:30 50.8 °F 49.7 °F 30.25 in ENE 1.0 mph 5.0 mph 96% 0.02 in 35.00 W/m2
11:35 50.8 °F 49.4 °F 30.24 in ENE 3.0 mph 8.0 mph 95% 0.02 in 60.00 W/m2
11:40 50.7 °F 49.3 °F 30.24 in ENE 5.0 mph 10.0 mph 95% 0.02 in 74.00 W/m2
11:45 50.7 °F 49.3 °F 30.24 in NNE 3.0 mph 10.0 mph 95% 0.02 in 80.00 W/m2
11:50 50.7 °F 49.3 °F 30.24 in North 2.0 mph 5.0 mph 95% 0.03 in 86.00 W/m2
11:55 50.8 °F 49.4 °F 30.23 in NE 3.0 mph 7.0 mph 95% 0.04 in 113.00 W/m2
12:00 50.8 °F 49.7 °F 30.22 in ENE 4.0 mph 9.0 mph 96% 0.05 in 128.00 W/m2
12:05 50.9 °F 49.8 °F 30.22 in ENE 4.0 mph 11.0 mph 96% 0.04 in 117.00 W/m2
12:10 51.0 °F 49.9 °F 30.23 in NE 2.0 mph 7.0 mph 96% 0.05 in 117.00 W/m2
12:15 51.1 °F 50.0 °F 30.23 in ENE 3.0 mph 8.0 mph 96% 0.05 in 99.00 W/m2
12:20 51.2 °F 50.1 °F 30.23 in ENE 1.0 mph 5.0 mph 96% 0.06 in 92.00 W/m2
12:25 51.3 °F 50.2 °F 30.23 in East 2.0 mph 5.0 mph 96% 0.06 in 95.00 W/m2
12:30 51.3 °F 49.9 °F 30.23 in ENE 2.0 mph 8.0 mph 95% 0.06 in 72.00 W/m2
12:35 51.4 °F 50.0 °F 30.23 in ENE 2.0 mph 5.0 mph 95% 0.07 in 80.00 W/m2
12:40 51.5 °F 50.4 °F 30.23 in Calm   2.0 mph 96% 0.08 in 59.00 W/m2
12:45 51.5 °F 50.4 °F 30.23 in Calm   3.0 mph 96% 0.07 in 55.00 W/m2
12:50 51.5 °F 50.4 °F 30.22 in East 2.0 mph 5.0 mph 96% 0.06 in 84.00 W/m2
12:55 51.7 °F 50.6 °F 30.22 in ENE 2.0 mph 5.0 mph 96% 0.06 in 126.00 W/m2
13:00 51.7 °F 50.6 °F 30.23 in Calm   1.0 mph 96% 0.05 in 117.00 W/m2
13:05 51.8 °F 50.4 °F 30.23 in Calm   2.0 mph 95% 0.05 in 62.00 W/m2
13:10 51.9 °F 50.5 °F 30.23 in NNE 1.0 mph 3.0 mph 95% 0.05 in 68.00 W/m2
13:15 52.0 °F 50.6 °F 30.21 in NNE 3.0 mph 8.0 mph 95% 0.05 in 109.00 W/m2
13:20 52.1 °F 51.0 °F 30.21 in ENE 3.0 mph 8.0 mph 96% 0.04 in 105.00 W/m2
13:25 52.3 °F 51.2 °F 30.22 in SSW 1.0 mph 4.0 mph 96% 0.04 in 81.00 W/m2
13:30 52.4 °F 51.0 °F 30.21 in ESE 1.0 mph 4.0 mph 95% 0.04 in 111.00 W/m2
13:35 52.6 °F 51.2 °F 30.21 in ENE 2.0 mph 7.0 mph 95% 0.03 in 165.00 W/m2
13:40 52.8 °F 51.7 °F 30.21 in SSE 1.0 mph 3.0 mph 96% 0.02 in 197.00 W/m2
13:45 53.0 °F 51.6 °F 30.20 in Calm   2.0 mph 95% 0.02 in 334.00 W/m2
13:50 53.5 °F 52.1 °F 30.20 in East 3.0 mph 7.0 mph 95% 0.02 in 287.00 W/m2
13:55 53.9 °F 52.5 °F 30.20 in ENE 1.0 mph 6.0 mph 95% 0.01 in 201.00 W/m2
14:00 54.3 °F 52.9 °F 30.21 in NNE 1.0 mph 6.0 mph 95% 0.01 in 173.00 W/m2
14:05 54.5 °F 53.1 °F 30.21 in SE 2.0 mph 6.0 mph 95% 0.01 in 196.00 W/m2
14:10 54.6 °F 53.2 °F 30.21 in East 1.0 mph 2.0 mph 95% 0.00 in 153.00 W/m2
14:15 54.7 °F 53.3 °F 30.21 in ENE 1.0 mph 4.0 mph 95% 0.00 in 143.00 W/m2
14:20 54.9 °F 53.5 °F 30.21 in ENE 2.0 mph 5.0 mph 95% 0.00 in 160.00 W/m2
14:25 55.1 °F 53.7 °F 30.21 in ENE 3.0 mph 5.0 mph 95% 0.00 in 213.00 W/m2
14:30 55.3 °F 53.9 °F 30.21 in East 2.0 mph 7.0 mph 95% 0.00 in 200.00 W/m2
14:35 55.5 °F 54.1 °F 30.21 in East 4.0 mph 7.0 mph 95% 0.00 in 176.00 W/m2
14:40 55.5 °F 54.1 °F 30.20 in East 5.0 mph 11.0 mph 95% 0.00 in 158.00 W/m2
14:45 55.4 °F 54.0 °F 30.21 in ESE 2.0 mph 7.0 mph 95% 0.00 in 131.00 W/m2
14:50 55.5 °F 54.1 °F 30.20 in East 4.0 mph 9.0 mph 95% 0.00 in 104.00 W/m2
14:55 55.5 °F 54.1 °F 30.21 in WSW 2.0 mph 4.0 mph 95% 0.00 in 108.00 W/m2
15:00 55.6 °F 54.2 °F 30.19 in East 8.0 mph 14.0 mph 95% 0.00 in 157.00 W/m2
15:05 55.4 °F 54.0 °F 30.20 in SE 3.0 mph 14.0 mph 95% 0.00 in 138.00 W/m2
15:10 55.4 °F 54.0 °F 30.20 in East 6.0 mph 10.0 mph 95% 0.00 in 150.00 W/m2
15:15 55.4 °F 54.0 °F 30.20 in ESE 6.0 mph 11.0 mph 95% 0.00 in 129.00 W/m2
15:20 55.4 °F 54.0 °F 30.20 in ENE 5.0 mph 10.0 mph 95% 0.00 in 101.00 W/m2
15:25 55.2 °F 54.1 °F 30.20 in East 3.0 mph 7.0 mph 96% 0.00 in 76.00 W/m2
15:30 55.1 °F 53.7 °F 30.20 in ESE 4.0 mph 9.0 mph 95% 0.00 in 100.00 W/m2
Albertville, AL Weather
Compliments of Weather Underground - 4 mb